Time;durP1;ratioP1;P1;durP2;ratioP2;P2;SDS_P1;SDS_P2;PMS_P1;PMS_P2;Temp;Humidity;BMP_temperature;BMP_pressure;BME280_temperature;BME280_humidity;BME280_pressure;Samples;Min_cycle;Max_cycle;Signal;HPM_P1;HPM_P2
2021/12/19 00:00:58;;;;;;;;;30.75;28.25;;;;;7.43;78.04;102867.63;5082772;28;45436;-61
2021/12/19 00:08:52;;;;;;;;;35.75;29.50;;;;;7.35;78.19;102866.78;5083001;28;45386;-61
2021/12/19 00:11:22;;;;;;;;;45.25;35.00;;;;;7.37;78.11;102850.00;5082492;28;45480;-62
2021/12/19 00:13:49;;;;;;;;;42.25;32.50;;;;;7.40;78.08;102857.03;5064323;28;45472;-64
2021/12/19 00:16:15;;;;;;;;;44.50;32.00;;;;;7.37;77.66;102863.22;5082904;28;45330;-62
2021/12/19 00:18:43;;;;;;;;;39.25;27.75;;;;;7.38;77.91;102857.03;5082454;28;45384;-61
2021/12/19 00:21:15;;;;;;;;;39.00;28.50;;;;;7.44;77.41;102852.63;5063626;28;46987;-62
2021/12/19 00:23:42;;;;;;;;;33.75;29.00;;;;;7.43;77.98;102851.72;5082472;28;45384;-63
2021/12/19 00:26:08;;;;;;;;;29.50;26.25;;;;;7.36;77.73;102842.94;5082316;28;45388;-62
2021/12/19 00:28:34;;;;;;;;;33.75;29.50;;;;;7.39;78.05;102845.56;5082607;28;45528;-61
2021/12/19 00:30:59;;;;;;;;;30.25;17.25;;;;;7.39;77.67;102834.09;5064551;28;45337;-62
2021/12/19 00:33:26;;;;;;;;;37.00;32.25;;;;;7.36;78.10;102821.75;5082403;28;45231;-63
2021/12/19 00:35:51;;;;;;;;;47.75;30.75;;;;;7.42;78.19;102834.06;5064060;28;45406;-62
2021/12/19 00:38:17;;;;;;;;;41.00;32.50;;;;;7.41;78.19;102829.66;5082500;28;45358;-63
2021/12/19 00:40:43;;;;;;;;;36.00;31.00;;;;;7.33;77.89;102820.91;5080864;28;47294;-62
2021/12/19 00:43:12;;;;;;;;;38.50;24.75;;;;;7.40;77.92;102831.44;5082178;28;45200;-62
2021/12/19 00:45:40;;;;;;;;;27.25;18.25;;;;;7.36;77.92;102834.13;5082105;28;45365;-63
2021/12/19 00:48:08;;;;;;;;;23.50;21.25;;;;;7.41;78.08;102837.59;5082272;28;45551;-62
2021/12/19 00:50:36;;;;;;;;;41.50;34.75;;;;;7.40;77.92;102828.78;5076954;28;46240;-61
2021/12/19 00:53:03;;;;;;;;;33.25;29.25;;;;;7.34;78.23;102820.91;5062249;28;45450;-62
2021/12/19 00:55:28;;;;;;;;;31.00;26.75;;;;;7.34;78.44;102814.72;5061700;28;45459;-62
2021/12/19 00:57:55;;;;;;;;;32.75;30.00;;;;;7.40;78.50;102819.97;5060529;28;45621;-61
2021/12/19 01:00:27;;;;;;;;;34.50;29.50;;;;;7.38;78.74;102824.41;5060005;28;47678;-61
2021/12/19 01:02:57;;;;;;;;;39.50;23.75;;;;;7.38;78.31;102819.97;5073296;28;45350;-61
2021/12/19 01:05:22;;;;;;;;;30.50;25.00;;;;;7.39;78.34;102826.16;5077339;28;45168;-62
2021/12/19 01:07:48;;;;;;;;;34.50;27.25;;;;;7.39;78.59;102807.63;5079025;28;45256;-62
2021/12/19 01:10:14;;;;;;;;;34.50;30.75;;;;;7.43;78.42;102819.97;5060136;28;46812;-62
2021/12/19 01:12:40;;;;;;;;;31.50;28.50;;;;;7.45;78.08;102817.31;5078747;28;45493;-63
2021/12/19 01:15:07;;;;;;;;;29.50;28.00;;;;;7.45;78.87;102812.00;5078479;28;45430;-63
2021/12/19 01:17:33;;;;;;;;;29.25;20.75;;;;;7.39;78.54;102812.91;5060921;28;45952;-62
2021/12/19 01:19:59;;;;;;;;;31.75;26.50;;;;;7.42;78.54;102810.22;5078834;28;45446;-62
2021/12/19 01:22:24;;;;;;;;;26.25;22.25;;;;;7.43;78.27;102812.03;5078451;28;45323;-62
2021/12/19 01:24:50;;;;;;;;;39.75;27.50;;;;;7.44;78.70;102816.44;5060213;28;45287;-61
2021/12/19 01:27:15;;;;;;;;;36.25;25.00;;;;;7.43;78.12;102814.66;5078453;28;45623;-61
2021/12/19 01:29:41;;;;;;;;;34.25;25.75;;;;;7.37;78.59;102809.41;5078477;28;45401;-61
2021/12/19 01:32:06;;;;;;;;;28.25;26.25;;;;;7.28;79.29;102812.09;5056364;28;45283;-62
2021/12/19 01:34:31;;;;;;;;;26.75;20.75;;;;;7.22;79.42;102815.69;5068653;28;45539;-62
2021/12/19 01:36:57;;;;;;;;;27.50;24.50;;;;;7.19;79.31;102804.25;5078147;28;45350;-62
2021/12/19 01:39:22;;;;;;;;;29.00;26.00;;;;;7.28;78.80;102809.47;5076887;28;45622;-62
2021/12/19 01:41:51;;;;;;;;;32.50;24.00;;;;;7.26;79.42;102803.31;5059517;28;45287;-61
2021/12/19 01:44:17;;;;;;;;;33.00;31.75;;;;;7.29;78.80;102805.91;5078083;28;45449;-64
2021/12/19 01:46:44;;;;;;;;;32.00;21.25;;;;;7.25;79.31;102801.56;5076444;28;45563;-62
2021/12/19 01:49:11;;;;;;;;;35.50;25.00;;;;;7.29;79.18;102811.22;5077539;28;45524;-62
2021/12/19 01:51:37;;;;;;;;;30.25;22.00;;;;;7.13;79.41;102804.28;5077727;28;45284;-64
2021/12/19 01:54:03;;;;;;;;;18.25;17.50;;;;;7.13;79.54;102801.63;5078301;28;45265;-62
2021/12/19 01:56:28;;;;;;;;;27.25;19.75;;;;;7.13;80.31;102802.50;5077677;28;45597;-62
2021/12/19 01:58:54;;;;;;;;;32.25;23.50;;;;;7.12;80.61;102807.81;5077768;28;45289;-65
2021/12/19 02:01:19;;;;;;;;;25.00;23.25;;;;;7.08;79.54;102791.97;5077914;28;45512;-63
2021/12/19 02:03:45;;;;;;;;;29.50;24.25;;;;;7.10;80.01;102799.88;5077461;28;45425;-63
2021/12/19 02:06:10;;;;;;;;;21.25;18.25;;;;;7.10;79.50;102797.25;5059409;28;45421;-61
2021/12/19 02:08:36;;;;;;;;;19.25;19.25;;;;;7.11;80.07;102793.72;5077528;28;46074;-62
2021/12/19 02:11:01;;;;;;;;;16.75;13.25;;;;;7.12;80.02;102791.94;5059562;28;45515;-64
2021/12/19 02:13:27;;;;;;;;;23.75;19.75;;;;;7.12;79.91;102794.59;5059576;28;45411;-61
2021/12/19 02:15:52;;;;;;;;;23.75;21.50;;;;;7.10;80.28;102789.31;5077304;28;45503;-62
2021/12/19 02:18:21;;;;;;;;;31.00;21.50;;;;;7.09;80.26;102783.13;5076526;28;45350;-62
2021/12/19 02:20:52;;;;;;;;;25.75;21.75;;;;;7.00;79.93;102769.97;5077594;28;45764;-62
2021/12/19 02:23:20;;;;;;;;;20.25;19.25;;;;;7.11;80.29;102783.13;5077683;28;45450;-64
2021/12/19 02:25:46;;;;;;;;;23.75;21.25;;;;;7.09;79.61;102780.50;5077324;28;45255;-62
2021/12/19 02:28:12;;;;;;;;;28.50;20.75;;;;;7.10;80.55;102779.59;5077024;28;45695;-62
2021/12/19 02:30:38;;;;;;;;;27.25;20.25;;;;;7.04;80.52;102773.50;5058870;28;45413;-63
2021/12/19 02:33:13;;;;;;;;;26.75;23.25;;;;;7.05;80.12;102780.53;5077232;28;45730;-61
2021/12/19 02:35:41;;;;;;;;;23.75;20.75;;;;;7.02;80.01;102775.22;5077663;28;45464;-61
2021/12/19 02:38:33;;;;;;;;;30.00;22.50;;;;;7.06;79.70;102777.88;5059636;28;47617;-63
2021/12/19 02:49:19;;;;;;;;;25.75;21.50;;;;;7.01;80.18;102762.91;5076784;28;45462;-62
2021/12/19 02:51:45;;;;;;;;;30.75;20.00;;;;;6.97;80.18;102761.16;5076993;28;45635;-62
2021/12/19 02:54:11;;;;;;;;;16.00;14.25;;;;;6.97;79.42;102748.81;5077002;28;45235;-61
2021/12/19 02:56:36;;;;;;;;;24.25;21.00;;;;;7.04;79.54;102763.78;5076676;28;45539;-61
2021/12/19 02:59:02;;;;;;;;;22.50;19.75;;;;;7.01;79.27;102755.84;5058409;28;48139;-61
2021/12/19 03:01:28;;;;;;;;;27.00;21.50;;;;;7.02;79.41;102749.66;5076911;28;45332;-63
2021/12/19 03:03:54;;;;;;;;;26.50;20.75;;;;;7.01;79.75;102758.47;5076865;28;45208;-60
2021/12/19 03:06:19;;;;;;;;;21.00;19.00;;;;;6.98;79.34;102747.06;5058850;28;45620;-62
2021/12/19 03:08:48;;;;;;;;;23.75;20.75;;;;;7.03;79.73;102756.75;5058324;28;46199;-63
2021/12/19 03:19:28;;;;;;;;;21.25;19.75;;;;;7.07;79.07;102737.28;5076429;28;45283;-62
2021/12/19 03:21:53;;;;;;;;;27.50;23.50;;;;;7.10;78.75;102737.25;5076050;28;45501;-63
2021/12/19 03:24:19;;;;;;;;;24.75;17.00;;;;;7.09;79.00;102730.22;5076442;28;45464;-62
2021/12/19 03:26:44;;;;;;;;;26.00;22.50;;;;;7.07;78.87;102732.00;5075836;28;45508;-65
2021/12/19 03:29:10;;;;;;;;;24.50;18.75;;;;;7.08;78.69;102731.09;5076157;28;45897;-62
2021/12/19 03:31:36;;;;;;;;;24.25;20.25;;;;;7.10;78.95;102737.25;5076563;28;45201;-62
2021/12/19 03:34:01;;;;;;;;;19.00;17.00;;;;;7.08;78.82;102728.47;5038113;28;45210;-61
2021/12/19 03:36:27;;;;;;;;;21.00;21.00;;;;;7.14;78.49;102737.22;5054800;28;45510;-62
2021/12/19 03:38:58;;;;;;;;;22.75;20.00;;;;;7.13;78.85;102727.53;5056184;28;45306;-61
2021/12/19 03:41:33;;;;;;;;;15.00;10.25;;;;;7.07;78.64;102745.22;5037836;28;45457;-62
2021/12/19 03:43:58;;;;;;;;;26.25;22.50;;;;;7.08;78.50;102733.75;5056020;28;45405;-63
2021/12/19 03:46:24;;;;;;;;;23.75;17.50;;;;;7.07;78.25;102737.28;5056241;28;45828;-62
2021/12/19 03:48:49;;;;;;;;;15.00;13.50;;;;;7.02;78.61;102733.78;5057740;28;45969;-62
2021/12/19 03:51:15;;;;;;;;;15.75;13.25;;;;;7.03;78.37;102739.94;5057700;28;45406;-61
2021/12/19 03:53:40;;;;;;;;;23.75;19.25;;;;;6.98;78.60;102742.63;5076647;28;45401;-62
2021/12/19 03:56:05;;;;;;;;;18.00;16.50;;;;;6.94;78.61;102740.03;5058017;28;45454;-61
2021/12/19 03:58:31;;;;;;;;;23.50;19.25;;;;;6.97;79.26;102740.88;5057820;28;46835;-62
2021/12/19 04:01:04;;;;;;;;;19.25;13.00;;;;;6.90;78.73;102725.97;5075987;28;45264;-60
2021/12/19 04:03:30;;;;;;;;;28.50;20.50;;;;;6.87;79.67;102733.00;5076105;28;45539;-62
2021/12/19 04:05:55;;;;;;;;;21.50;18.25;;;;;6.92;79.28;102740.06;5076182;28;45512;-62
2021/12/19 04:08:21;;;;;;;;;20.25;18.25;;;;;6.89;79.58;102742.69;5057720;28;46719;-61
2021/12/19 04:10:48;;;;;;;;;18.75;16.25;;;;;6.94;79.52;102737.41;5075882;28;45331;-61
2021/12/19 04:13:15;;;;;;;;;29.50;22.50;;;;;6.90;79.64;102728.59;5075476;28;45183;-62
2021/12/19 04:15:40;;;;;;;;;27.50;17.00;;;;;6.89;80.34;102736.53;5057895;28;45388;-62
2021/12/19 04:18:05;;;;;;;;;24.00;19.00;;;;;6.85;80.04;102730.38;5075123;28;45439;-62
2021/12/19 04:20:31;;;;;;;;;19.00;17.25;;;;;6.90;80.30;102727.69;5057492;28;46009;-60
2021/12/19 04:22:57;;;;;;;;;20.50;13.00;;;;;6.85;79.87;102714.50;5075937;28;45480;-66
2021/12/19 04:25:22;;;;;;;;;22.75;18.00;;;;;6.83;80.06;102712.78;5076464;28;45534;-62
2021/12/19 04:27:48;;;;;;;;;19.50;11.75;;;;;6.88;80.31;102725.06;5075971;28;46526;-62
2021/12/19 04:30:17;;;;;;;;;23.00;16.50;;;;;6.90;79.67;102718.03;5076448;28;45375;-61
2021/12/19 04:32:46;;;;;;;;;24.25;18.00;;;;;6.91;79.89;102719.78;5076038;28;45306;-60
2021/12/19 04:35:12;;;;;;;;;22.75;13.75;;;;;6.96;79.83;102725.03;5076383;28;45543;-62
2021/12/19 04:40:24;;;;;;;;;28.25;19.00;;;;;6.92;80.28;102695.09;5079363;28;45392;-62
2021/12/19 04:54:05;;;;;;;;;20.75;16.00;;;;;6.97;80.02;102697.69;5079002;28;45330;-62
2021/12/19 04:56:42;;;;;;;;;17.00;11.00;;;;;7.00;80.09;102692.38;5078975;28;45409;-65
2021/12/19 05:15:27;;;;;;;;;20.50;15.75;;;;;6.85;80.12;102692.47;5078670;28;45238;-61
2021/12/19 05:17:57;;;;;;;;;13.50;12.50;;;;;6.84;79.80;102688.97;5078427;28;45374;-61
2021/12/19 05:20:26;;;;;;;;;11.75;10.25;;;;;6.87;79.91;102696.88;5078560;28;46521;-61
2021/12/19 05:22:56;;;;;;;;;13.50;13.00;;;;;6.87;80.59;102690.69;5078242;28;45461;-61
2021/12/19 05:25:22;;;;;;;;;11.00;11.00;;;;;6.83;80.39;102688.97;5078491;28;45397;-63
2021/12/19 05:27:53;;;;;;;;;17.75;13.00;;;;;6.76;79.93;102672.25;5078941;28;45305;-61
2021/12/19 05:30:19;;;;;;;;;15.00;11.00;;;;;6.81;80.35;102686.34;5078502;28;46121;-61
2021/12/19 05:32:46;;;;;;;;;14.75;10.25;;;;;6.79;80.33;102680.19;5079092;28;45355;-62
2021/12/19 05:35:15;;;;;;;;;11.50;8.50;;;;;6.81;80.56;102686.34;5078746;28;45300;-61
2021/12/19 05:45:53;;;;;;;;;14.25;11.00;;;;;6.79;79.99;102682.84;5071263;28;45540;-62
2021/12/19 05:48:19;;;;;;;;;13.00;11.75;;;;;6.78;80.63;102686.38;5056065;28;45520;-62
2021/12/19 05:50:44;;;;;;;;;15.75;12.75;;;;;6.75;80.75;102679.31;5037613;28;45980;-62
2021/12/19 05:53:11;;;;;;;;;17.00;13.00;;;;;6.73;80.69;102677.56;5039512;28;45296;-62
2021/12/19 05:55:37;;;;;;;;;16.25;15.00;;;;;6.72;80.36;102673.19;5057302;28;45683;-61
2021/12/19 05:58:02;;;;;;;;;14.00;10.25;;;;;6.69;81.12;102683.78;5039738;28;45478;-62
2021/12/19 06:00:28;;;;;;;;;15.00;15.00;;;;;6.74;80.46;102681.97;5057364;28;46255;-62
2021/12/19 06:02:53;;;;;;;;;13.50;9.00;;;;;6.67;80.42;102667.06;5057400;28;45450;-61
2021/12/19 06:05:19;;;;;;;;;17.75;12.25;;;;;6.67;80.27;102662.66;5057559;28;45437;-61
2021/12/19 06:07:44;;;;;;;;;14.25;10.75;;;;;6.69;79.88;102666.16;5022999;28;45623;-61
2021/12/19 06:10:11;;;;;;;;;12.00;10.50;;;;;6.70;79.94;102667.03;5057246;28;45451;-62
2021/12/19 06:12:37;;;;;;;;;15.00;13.25;;;;;6.68;80.40;102671.44;5067542;28;45469;-62
2021/12/19 06:15:08;;;;;;;;;12.00;10.25;;;;;6.69;80.27;102660.84;5076302;28;45301;-61
2021/12/19 06:17:35;;;;;;;;;14.50;13.00;;;;;6.74;80.26;102671.41;5076402;27;45402;-62
2021/12/19 06:20:00;;;;;;;;;16.50;11.25;;;;;6.78;79.67;102667.84;5077392;27;45310;-62
2021/12/19 06:22:26;;;;;;;;;12.00;12.00;;;;;6.78;79.86;102665.22;5076156;27;45405;-62
2021/12/19 06:24:51;;;;;;;;;12.50;12.50;;;;;6.73;79.55;102662.59;5077418;27;45351;-61
2021/12/19 06:27:17;;;;;;;;;13.25;9.50;;;;;6.78;79.20;102665.22;5076236;28;45619;-61
2021/12/19 06:29:42;;;;;;;;;14.25;12.25;;;;;6.76;79.76;102657.25;5076033;28;45456;-62
2021/12/19 06:32:08;;;;;;;;;9.50;9.00;;;;;6.78;79.03;102659.94;5077176;27;45247;-62
2021/12/19 06:34:34;;;;;;;;;16.75;11.50;;;;;6.79;79.23;102659.03;5077438;27;45419;-61
2021/12/19 06:36:59;;;;;;;;;13.75;11.75;;;;;6.82;79.68;102659.00;5076269;28;45276;-62
2021/12/19 06:39:25;;;;;;;;;9.75;9.75;;;;;6.84;79.19;102666.94;5077010;28;46072;-62
2021/12/19 06:41:50;;;;;;;;;14.75;12.75;;;;;6.83;79.09;102673.09;5059173;28;45674;-60
2021/12/19 06:44:16;;;;;;;;;16.50;10.25;;;;;6.77;79.83;102658.13;5078148;28;45557;-62
2021/12/19 06:46:42;;;;;;;;;16.50;12.75;;;;;6.80;80.09;102663.44;5077776;28;45389;-62
2021/12/19 06:49:07;;;;;;;;;17.00;12.75;;;;;6.77;79.66;102668.72;5058745;28;46174;-62
2021/12/19 06:51:33;;;;;;;;;14.25;10.00;;;;;6.81;78.83;102670.47;5077054;28;45548;-62
2021/12/19 06:53:59;;;;;;;;;19.50;16.50;;;;;6.78;79.45;102666.09;5077140;28;45323;-63
2021/12/19 06:56:25;;;;;;;;;12.75;11.75;;;;;6.77;78.92;102668.72;5059078;28;45575;-62
2021/12/19 06:58:50;;;;;;;;;16.00;12.25;;;;;6.70;79.12;102667.91;5077237;28;45291;-62
2021/12/19 07:01:16;;;;;;;;;15.50;15.00;;;;;6.70;80.18;102662.63;5076329;28;45265;-62
2021/12/19 07:03:41;;;;;;;;;10.25;10.25;;;;;6.76;79.42;102669.59;5076413;28;44768;-61
2021/12/19 07:06:07;;;;;;;;;15.25;12.00;;;;;6.74;79.04;102668.75;5057857;28;45390;-61
2021/12/19 07:08:32;;;;;;;;;23.00;9.50;;;;;6.70;80.06;102675.84;5054488;28;47659;-62
2021/12/19 07:10:57;;;;;;;;;13.00;12.25;;;;;6.66;79.87;102674.09;5056601;28;45359;-60
2021/12/19 07:13:23;;;;;;;;;18.00;11.75;;;;;6.62;80.01;102668.84;5056608;28;45460;-64
2021/12/19 07:15:49;;;;;;;;;12.25;11.00;;;;;6.67;79.25;102667.94;5062489;28;45315;-63
2021/12/19 07:18:15;;;;;;;;;13.75;9.25;;;;;6.62;79.12;102666.19;5058502;28;46364;-63
2021/12/19 07:20:43;;;;;;;;;8.50;8.50;;;;;6.63;79.55;102660.00;5076951;28;45394;-61
2021/12/19 07:23:13;;;;;;;;;12.75;10.00;;;;;6.63;79.17;102673.22;5076883;28;45496;-63
2021/12/19 07:25:39;;;;;;;;;10.25;8.50;;;;;6.63;78.47;102665.28;5076736;28;45231;-63
2021/12/19 07:28:04;;;;;;;;;11.50;9.00;;;;;6.62;78.73;102668.84;5076466;28;45833;-62
2021/12/19 07:30:31;;;;;;;;;13.75;9.50;;;;;6.60;79.03;102667.97;5058343;28;45315;-62
2021/12/19 07:32:57;;;;;;;;;12.75;10.00;;;;;6.62;79.29;102669.72;5058323;28;45275;-62
2021/12/19 07:35:23;;;;;;;;;12.50;10.00;;;;;6.60;78.75;102650.34;5058043;28;45906;-64
2021/12/19 07:37:51;;;;;;;;;10.75;8.25;;;;;6.65;78.90;102655.63;5076290;28;46017;-63
2021/12/19 07:40:19;;;;;;;;;12.50;11.00;;;;;6.68;78.61;102658.22;5076801;28;45410;-63
2021/12/19 07:42:45;;;;;;;;;9.50;6.50;;;;;6.66;78.67;102660.88;5076603;28;45273;-63
2021/12/19 07:45:11;;;;;;;;;13.00;9.75;;;;;6.66;78.43;102660.00;5058115;28;45213;-62
2021/12/19 07:47:39;;;;;;;;;12.50;9.75;;;;;6.67;78.07;102656.47;5076090;28;45506;-62
2021/12/19 07:50:06;;;;;;;;;16.00;15.00;;;;;6.68;79.05;102652.94;5076359;28;45543;-61
2021/12/19 07:52:32;;;;;;;;;16.75;12.75;;;;;6.71;79.00;102652.91;5076317;28;45286;-62
2021/12/19 07:55:01;;;;;;;;;15.00;15.00;;;;;6.72;78.77;102654.66;5076549;28;45654;-65
2021/12/19 07:57:26;;;;;;;;;16.25;15.00;;;;;6.72;78.42;102659.94;5076217;28;45456;-62
2021/12/19 07:59:52;;;;;;;;;18.25;11.75;;;;;6.72;78.39;102665.25;5058365;28;45406;-63
2021/12/19 08:02:17;;;;;;;;;23.00;13.50;;;;;6.71;78.60;102661.72;5076227;28;45609;-65
2021/12/19 08:04:43;;;;;;;;;20.00;18.25;;;;;6.74;78.05;102659.03;5075430;28;45340;-60
2021/12/19 08:07:11;;;;;;;;;16.75;12.75;;;;;6.74;78.35;102666.09;5076099;28;46110;-63
2021/12/19 08:09:40;;;;;;;;;18.25;15.25;;;;;6.72;78.48;102665.25;5075696;28;45330;-62
2021/12/19 08:12:08;;;;;;;;;13.00;10.25;;;;;6.75;77.87;102665.22;5076147;28;45347;-62
2021/12/19 08:14:34;;;;;;;;;17.50;13.75;;;;;6.78;78.04;102670.50;5078998;28;45523;-63
2021/12/19 08:16:59;;;;;;;;;13.25;12.00;;;;;6.77;78.36;102674.91;5079366;28;46067;-62
2021/12/19 08:19:25;;;;;;;;;26.25;16.00;;;;;6.76;78.28;102666.97;5079988;28;45437;-62
2021/12/19 08:21:53;;;;;;;;;17.25;13.00;;;;;6.70;78.04;102667.03;5061911;28;45354;-61
2021/12/19 08:24:19;;;;;;;;;10.75;9.50;;;;;6.64;77.86;102661.75;5080233;28;45550;-62
2021/12/19 08:26:46;;;;;;;;;15.50;13.00;;;;;6.68;78.54;102666.16;5061072;28;47563;-62
2021/12/19 08:29:12;;;;;;;;;14.75;12.75;;;;;6.65;77.24;102672.34;5079201;28;45351;-65
2021/12/19 08:31:38;;;;;;;;;16.00;13.50;;;;;6.64;78.13;102665.31;5079231;28;45437;-62
2021/12/19 08:34:03;;;;;;;;;19.75;15.75;;;;;6.59;78.03;102653.00;5079058;28;45420;-61
2021/12/19 08:36:29;;;;;;;;;14.00;12.00;;;;;6.58;78.05;102661.81;5060606;28;46178;-61
2021/12/19 08:38:54;;;;;;;;;15.50;15.00;;;;;6.65;77.77;102655.63;5061280;28;45413;-62
2021/12/19 08:41:20;;;;;;;;;16.50;12.75;;;;;6.62;77.98;102658.25;5079301;28;45436;-62
2021/12/19 08:43:48;;;;;;;;;28.00;20.00;;;;;6.57;78.84;102660.06;5060921;28;45410;-61
2021/12/19 08:46:14;;;;;;;;;16.25;12.25;;;;;6.60;78.85;102657.38;5078734;28;45503;-62
2021/12/19 08:48:39;;;;;;;;;17.25;15.25;;;;;6.65;78.29;102659.13;5060293;28;45510;-62
2021/12/19 08:51:06;;;;;;;;;15.00;13.00;;;;;6.68;78.26;102652.94;5060639;28;45338;-60
2021/12/19 08:53:31;;;;;;;;;20.50;15.75;;;;;6.67;78.75;102656.47;5079246;28;45475;-63
2021/12/19 08:55:57;;;;;;;;;21.50;19.00;;;;;6.70;78.84;102657.31;5078630;28;45487;-62
2021/12/19 08:58:23;;;;;;;;;21.00;16.00;;;;;6.65;78.85;102650.31;5079235;28;45381;-62
2021/12/19 09:00:49;;;;;;;;;19.25;17.50;;;;;6.73;78.17;102651.13;5078897;28;45339;-62
2021/12/19 09:03:15;;;;;;;;;27.25;23.50;;;;;6.75;78.47;102660.81;5078954;28;45336;-62
2021/12/19 09:05:40;;;;;;;;;17.25;17.25;;;;;6.76;78.68;102669.59;5077950;28;45497;-64
2021/12/19 09:08:06;;;;;;;;;20.50;18.50;;;;;6.76;78.20;102669.59;5078657;28;45182;-61
2021/12/19 09:10:32;;;;;;;;;16.75;16.50;;;;;6.71;78.07;102671.41;5079006;28;45339;-61
2021/12/19 09:12:58;;;;;;;;;21.25;15.75;;;;;6.67;78.33;102661.75;5061094;28;45527;-62
2021/12/19 09:15:23;;;;;;;;;24.00;20.00;;;;;6.69;79.32;102659.97;5078481;28;45268;-65
2021/12/19 09:17:49;;;;;;;;;21.75;15.75;;;;;6.62;79.06;102647.69;5060048;28;45217;-62
2021/12/19 09:20:15;;;;;;;;;23.25;20.50;;;;;6.67;78.44;102656.47;5078527;28;45424;-62
2021/12/19 09:22:41;;;;;;;;;20.50;17.00;;;;;6.67;78.46;102662.66;5078635;28;45359;-62
2021/12/19 09:25:07;;;;;;;;;26.00;22.25;;;;;6.73;78.19;102657.28;5058969;28;47149;-62
2021/12/19 09:27:32;;;;;;;;;27.00;22.50;;;;;6.83;78.64;102655.47;5059663;28;45536;-62
2021/12/19 09:29:58;;;;;;;;;17.50;15.75;;;;;6.83;78.00;102666.03;5078588;28;45423;-61
2021/12/19 09:32:23;;;;;;;;;27.25;22.75;;;;;6.80;78.53;102664.31;5078222;28;45454;-63
2021/12/19 09:34:49;;;;;;;;;27.75;15.00;;;;;6.76;77.86;102661.69;5077443;28;45497;-61
2021/12/19 09:37:15;;;;;;;;;16.00;16.00;;;;;6.76;77.86;102669.59;5078167;27;45372;-62
2021/12/19 09:39:41;;;;;;;;;19.00;15.50;;;;;6.68;77.90;102653.81;5077057;28;45460;-61
2021/12/19 09:42:10;;;;;;;;;10.25;10.25;;;;;6.73;77.75;102656.41;5076813;28;45593;-63
2021/12/19 09:44:38;;;;;;;;;20.50;16.50;;;;;6.74;77.91;102658.16;5076495;28;45332;-62
2021/12/19 09:47:07;;;;;;;;;15.75;15.25;;;;;6.81;77.65;102662.53;5077787;28;45476;-63
2021/12/19 09:49:34;;;;;;;;;20.25;16.75;;;;;6.78;77.67;102657.28;5078324;27;45386;-63
2021/12/19 09:52:02;;;;;;;;;17.50;16.00;;;;;6.80;78.03;102660.78;5077422;28;45563;-61
2021/12/19 09:54:28;;;;;;;;;20.50;17.50;;;;;6.82;78.45;102659.00;5076847;28;48074;-62
2021/12/19 09:56:54;;;;;;;;;19.75;19.25;;;;;6.91;77.79;102658.94;5076377;28;45499;-62
2021/12/19 09:59:21;;;;;;;;;22.75;17.75;;;;;6.94;78.16;102653.63;5077968;27;45393;-64
2021/12/19 10:01:49;;;;;;;;;25.00;19.50;;;;;6.94;78.34;102650.09;5076893;28;45560;-62
2021/12/19 10:04:38;;;;;;;;;18.50;12.00;;;;;6.86;78.32;102647.50;5068156;28;45378;-61
2021/12/19 10:07:08;;;;;;;;;20.50;17.00;;;;;6.86;78.40;102641.34;5039764;28;45360;-63
2021/12/19 10:09:37;;;;;;;;;38.00;30.50;;;;;6.86;78.74;102639.56;5057580;28;45237;-61
2021/12/19 10:12:23;;;;;;;;;33.25;27.75;;;;;6.88;78.13;102639.56;5057393;28;45394;-62
2021/12/19 10:14:48;;;;;;;;;23.50;18.50;;;;;6.89;77.82;102639.53;5038976;28;47917;-61
2021/12/19 10:17:18;;;;;;;;;21.50;15.50;;;;;6.92;77.44;102643.94;5057186;28;45409;-61
2021/12/19 10:19:52;;;;;;;;;21.25;19.75;;;;;6.84;76.86;102633.41;5039158;28;45285;-62
2021/12/19 10:22:37;;;;;;;;;20.00;20.00;;;;;6.88;77.06;102631.63;5057252;28;45453;-61
2021/12/19 10:25:09;;;;;;;;;26.75;19.00;;;;;6.92;76.87;102639.53;5057176;28;46108;-62
2021/12/19 10:27:38;;;;;;;;;34.50;24.75;;;;;6.93;76.60;102633.34;5056283;28;45469;-62
2021/12/19 10:30:09;;;;;;;;;28.25;20.25;;;;;6.98;75.99;102635.94;5057122;28;45319;-62
2021/12/19 10:32:35;;;;;;;;;29.75;23.25;;;;;6.99;76.24;102621.81;5038941;28;45537;-61
2021/12/19 10:35:19;;;;;;;;;27.75;23.75;;;;;7.04;76.22;102633.25;5070196;28;45408;-62
2021/12/19 10:37:45;;;;;;;;;33.25;23.00;;;;;7.01;76.04;102626.22;5076566;28;45519;-62
2021/12/19 10:40:11;;;;;;;;;27.50;26.25;;;;;6.97;75.42;102610.38;5076639;28;45310;-61
2021/12/19 10:42:48;;;;;;;;;29.75;23.75;;;;;7.02;75.70;102622.66;5077474;28;45331;-61
2021/12/19 10:45:32;;;;;;;;;28.00;24.00;;;;;7.06;75.39;102634.13;5058765;28;45445;-63
2021/12/19 10:48:18;;;;;;;;;24.75;21.00;;;;;7.06;75.42;102631.47;5077138;28;45193;-61
2021/12/19 10:50:45;;;;;;;;;35.00;26.25;;;;;7.04;76.25;102615.63;5077237;28;45350;-62
2021/12/19 10:53:11;;;;;;;;;23.50;17.00;;;;;7.02;74.79;102617.38;5059037;28;45561;-61
2021/12/19 10:55:40;;;;;;;;;28.75;24.50;;;;;6.97;75.47;102613.91;5076878;28;45988;-61
2021/12/19 10:58:18;;;;;;;;;15.50;15.50;;;;;6.99;75.58;102611.25;5076891;28;45390;-62
2021/12/19 11:01:04;;;;;;;;;28.25;23.00;;;;;6.99;75.33;102612.13;5077011;28;45232;-61
2021/12/19 11:03:39;;;;;;;;;27.50;23.50;;;;;7.01;75.10;102604.16;5058929;28;45541;-62
2021/12/19 11:06:22;;;;;;;;;16.75;14.50;;;;;7.04;75.11;102606.81;5076642;28;46292;-62
2021/12/19 11:08:49;;;;;;;;;32.25;25.75;;;;;7.04;74.69;102599.75;5076546;28;45437;-62
2021/12/19 11:11:49;;;;;;;;;28.25;24.00;;;;;7.05;74.84;102596.22;5076953;28;45433;-62
2021/12/19 11:14:14;;;;;;;;;22.00;20.75;;;;;7.09;74.53;102589.09;5077014;28;45492;-61
2021/12/19 11:16:44;;;;;;;;;30.75;24.75;;;;;7.12;74.85;102590.84;5058232;28;46458;-62
2021/12/19 11:19:10;;;;;;;;;30.25;24.50;;;;;7.10;74.31;102573.22;5058273;28;46051;-64
2021/12/19 11:21:37;;;;;;;;;26.00;20.75;;;;;7.13;73.68;102587.31;5058485;28;45383;-63
2021/12/19 11:24:07;;;;;;;;;27.50;23.75;;;;;7.07;74.49;102561.78;5076867;28;45556;-63
2021/12/19 11:26:34;;;;;;;;;25.25;21.00;;;;;7.18;74.45;102581.09;5076578;28;46395;-63
2021/12/19 11:29:00;;;;;;;;;35.25;25.25;;;;;7.15;74.39;102559.94;5076412;28;45309;-63
2021/12/19 11:31:27;;;;;;;;;27.50;23.50;;;;;7.27;74.38;102569.50;5076414;28;45438;-62
2021/12/19 11:34:08;;;;;;;;;24.75;24.75;;;;;7.31;73.84;102572.13;5076098;28;45552;-62
2021/12/19 11:36:41;;;;;;;;;32.50;26.50;;;;;7.31;73.63;102572.13;5076596;28;46111;-63
2021/12/19 11:39:08;;;;;;;;;28.25;24.25;;;;;7.32;74.01;102562.41;5076261;28;45464;-64
2021/12/19 11:41:35;;;;;;;;;32.50;24.75;;;;;7.29;73.71;102551.84;5076124;28;45300;-63
2021/12/19 11:44:03;;;;;;;;;24.50;20.25;;;;;7.32;73.59;102560.66;5038070;28;45501;-61
2021/12/19 11:46:43;;;;;;;;;31.50;21.00;;;;;7.29;74.14;102557.13;5055804;28;45413;-61
2021/12/19 11:49:18;;;;;;;;;28.25;20.50;;;;;7.32;74.41;102541.25;5055235;28;45324;-61
2021/12/19 11:51:44;;;;;;;;;28.25;22.75;;;;;7.35;74.54;102536.78;5037886;28;45289;-63
2021/12/19 11:54:16;;;;;;;;;33.75;24.25;;;;;7.37;74.19;102531.47;5056039;28;45536;-63
2021/12/19 11:57:20;;;;;;;;;34.75;24.75;;;;;7.43;74.29;102539.34;5055617;28;45319;-61
2021/12/19 11:59:45;;;;;;;;;30.75;23.75;;;;;7.40;73.95;102518.19;5055611;28;45554;-62
2021/12/19 12:02:22;;;;;;;;;26.75;22.25;;;;;7.47;74.30;102525.16;5055440;28;45368;-62
2021/12/19 12:05:25;;;;;;;;;30.25;25.00;;;;;7.45;74.08;102520.78;5046537;28;45542;-61
2021/12/19 12:08:08;;;;;;;;;31.25;26.50;;;;;7.45;73.94;102521.66;4935029;28;45507;-62
2021/12/19 12:10:59;;;;;;;;;27.25;24.00;;;;;7.45;74.18;102500.50;5046661;28;45379;-62
2021/12/19 12:13:35;;;;;;;;;26.75;24.25;;;;;7.51;74.28;102511.00;5028352;28;45314;-62
2021/12/19 12:16:21;;;;;;;;;28.75;26.50;;;;;7.54;74.07;102505.66;5056112;28;45391;-61
2021/12/19 12:18:58;;;;;;;;;32.25;25.75;;;;;7.55;74.30;102502.13;5037029;28;45994;-62
2021/12/19 12:24:13;;;;;;;;;27.00;23.75;;;;;7.60;73.99;102496.78;5055332;28;45330;-61